sensor_id;sensor_type;location;lat;lon;timestamp;temperature;humidity
23069;DHT22;11702;50.856;4.348;2023-04-28T10:20:39;21.00;99.90
23069;DHT22;11702;50.856;4.348;2023-04-28T10:23:15;20.70;99.90
23069;DHT22;11702;50.856;4.348;2023-04-28T10:25:42;20.50;99.90
23069;DHT22;11702;50.856;4.348;2023-04-28T10:28:08;20.10;99.90
23069;DHT22;11702;50.856;4.348;2023-04-28T10:30:34;19.70;99.90
23069;DHT22;11702;50.856;4.348;2023-04-28T10:33:22;19.30;99.90
23069;DHT22;11702;50.856;4.348;2023-04-28T10:35:50;19.50;99.90
23069;DHT22;11702;50.856;4.348;2023-04-28T10:38:17;19.50;99.90
23069;DHT22;11702;50.856;4.348;2023-04-28T10:43:12;19.30;99.90
23069;DHT22;11702;50.856;4.348;2023-04-28T10:48:16;19.80;99.90
23069;DHT22;11702;50.856;4.348;2023-04-28T10:56:17;18.90;99.90
23069;DHT22;11702;50.856;4.348;2023-04-28T10:58:44;18.90;99.90
23069;DHT22;11702;50.856;4.348;2023-04-28T11:06:22;18.50;99.90
23069;DHT22;11702;50.856;4.348;2023-04-28T11:08:51;18.60;99.90
23069;DHT22;11702;50.856;4.348;2023-04-28T11:11:22;18.70;99.90
23069;DHT22;11702;50.856;4.348;2023-04-28T11:13:50;18.50;99.90
23069;DHT22;11702;50.856;4.348;2023-04-28T11:16:19;18.40;99.90
23069;DHT22;11702;50.856;4.348;2023-04-28T11:18:57;18.40;99.90
23069;DHT22;11702;50.856;4.348;2023-04-28T11:21:25;18.40;99.90
23069;DHT22;11702;50.856;4.348;2023-04-28T11:23:56;18.60;99.90
23069;DHT22;11702;50.856;4.348;2023-04-28T11:26:23;18.70;99.90
23069;DHT22;11702;50.856;4.348;2023-04-28T11:28:55;18.50;99.90
23069;DHT22;11702;50.856;4.348;2023-04-28T11:31:23;18.10;99.90
23069;DHT22;11702;50.856;4.348;2023-04-28T11:34:05;18.00;99.90
23069;DHT22;11702;50.856;4.348;2023-04-28T11:36:44;18.00;99.90
23069;DHT22;11702;50.856;4.348;2023-04-28T11:39:12;18.00;99.90
23069;DHT22;11702;50.856;4.348;2023-04-28T11:41:42;18.00;99.90
23069;DHT22;11702;50.856;4.348;2023-04-28T11:44:22;17.80;99.90
23069;DHT22;11702;50.856;4.348;2023-04-28T11:46:56;17.80;99.90
23069;DHT22;11702;50.856;4.348;2023-04-28T11:52:04;17.70;99.90
23069;DHT22;11702;50.856;4.348;2023-04-28T11:54:31;17.90;99.90
23069;DHT22;11702;50.856;4.348;2023-04-28T11:56:58;17.80;99.90
23069;DHT22;11702;50.856;4.348;2023-04-28T11:59:29;17.50;99.90
23069;DHT22;11702;50.856;4.348;2023-04-28T12:02:06;17.70;99.90
23069;DHT22;11702;50.856;4.348;2023-04-28T12:04:33;17.80;99.90
23069;DHT22;11702;50.856;4.348;2023-04-28T12:07:04;17.70;99.90
23069;DHT22;11702;50.856;4.348;2023-04-28T12:09:31;17.40;99.90
23069;DHT22;11702;50.856;4.348;2023-04-28T12:12:01;17.40;99.90
23069;DHT22;11702;50.856;4.348;2023-04-28T12:14:28;17.50;99.90
23069;DHT22;11702;50.856;4.348;2023-04-28T12:16:54;17.60;99.90
23069;DHT22;11702;50.856;4.348;2023-04-28T12:19:21;17.80;99.90
23069;DHT22;11702;50.856;4.348;2023-04-28T12:22:05;18.10;99.90
23069;DHT22;11702;50.856;4.348;2023-04-28T12:24:32;18.20;99.90
23069;DHT22;11702;50.856;4.348;2023-04-28T12:27:17;18.10;99.90
23069;DHT22;11702;50.856;4.348;2023-04-28T12:29:46;18.10;99.90
23069;DHT22;11702;50.856;4.348;2023-04-28T12:32:13;18.00;99.90
23069;DHT22;11702;50.856;4.348;2023-04-28T12:34:40;17.90;99.90
23069;DHT22;11702;50.856;4.348;2023-04-28T12:37:06;17.70;99.90
23069;DHT22;11702;50.856;4.348;2023-04-28T12:39:33;17.90;99.90
23069;DHT22;11702;50.856;4.348;2023-04-28T12:42:00;18.00;99.90
23069;DHT22;11702;50.856;4.348;2023-04-28T12:44:34;18.00;99.90
23069;DHT22;11702;50.856;4.348;2023-04-28T12:47:07;18.00;99.90
23069;DHT22;11702;50.856;4.348;2023-04-28T12:49:34;17.80;99.90
23069;DHT22;11702;50.856;4.348;2023-04-28T12:52:00;17.60;99.90
23069;DHT22;11702;50.856;4.348;2023-04-28T12:54:26;17.50;99.90
23069;DHT22;11702;50.856;4.348;2023-04-28T12:56:52;17.30;99.90
23069;DHT22;11702;50.856;4.348;2023-04-28T12:59:19;17.30;99.90
23069;DHT22;11702;50.856;4.348;2023-04-28T13:01:46;17.30;99.90
23069;DHT22;11702;50.856;4.348;2023-04-28T13:04:12;17.30;99.90
23069;DHT22;11702;50.856;4.348;2023-04-28T13:06:38;17.50;99.90
23069;DHT22;11702;50.856;4.348;2023-04-28T13:09:06;17.70;99.90
23069;DHT22;11702;50.856;4.348;2023-04-28T13:11:32;17.80;99.90
23069;DHT22;11702;50.856;4.348;2023-04-28T13:13:57;18.00;99.90
23069;DHT22;11702;50.856;4.348;2023-04-28T13:16:23;18.20;99.90
23069;DHT22;11702;50.856;4.348;2023-04-28T13:18:57;18.40;99.90
23069;DHT22;11702;50.856;4.348;2023-04-28T13:21:24;18.50;99.90
23069;DHT22;11702;50.856;4.348;2023-04-28T13:23:51;18.30;99.90
23069;DHT22;11702;50.856;4.348;2023-04-28T13:26:18;18.00;99.90
23069;DHT22;11702;50.856;4.348;2023-04-28T13:28:47;17.90;99.90
23069;DHT22;11702;50.856;4.348;2023-04-28T13:31:13;17.80;99.90
23069;DHT22;11702;50.856;4.348;2023-04-28T13:33:39;17.80;99.90
23069;DHT22;11702;50.856;4.348;2023-04-28T13:36:05;17.70;99.90
23069;DHT22;11702;50.856;4.348;2023-04-28T13:38:35;17.70;99.90
23069;DHT22;11702;50.856;4.348;2023-04-28T13:41:01;17.50;99.90
23069;DHT22;11702;50.856;4.348;2023-04-28T13:43:26;17.40;99.90
23069;DHT22;11702;50.856;4.348;2023-04-28T13:45:52;17.30;99.90
23069;DHT22;11702;50.856;4.348;2023-04-28T13:48:18;17.30;99.90
23069;DHT22;11702;50.856;4.348;2023-04-28T13:50:45;17.20;99.90
23069;DHT22;11702;50.856;4.348;2023-04-28T13:53:11;17.10;99.90
23069;DHT22;11702;50.856;4.348;2023-04-28T13:55:37;17.00;99.90
23069;DHT22;11702;50.856;4.348;2023-04-28T13:58:03;17.10;99.90
23069;DHT22;11702;50.856;4.348;2023-04-28T14:00:31;17.30;99.90
23069;DHT22;11702;50.856;4.348;2023-04-28T14:02:59;17.60;99.90
23069;DHT22;11702;50.856;4.348;2023-04-28T14:05:25;18.00;99.90
23069;DHT22;11702;50.856;4.348;2023-04-28T14:07:55;18.20;99.90
23069;DHT22;11702;50.856;4.348;2023-04-28T14:10:21;18.10;99.90
23069;DHT22;11702;50.856;4.348;2023-04-28T14:12:47;18.10;99.90
23069;DHT22;11702;50.856;4.348;2023-04-28T14:15:14;18.10;99.90
23069;DHT22;11702;50.856;4.348;2023-04-28T14:17:40;18.00;99.90
23069;DHT22;11702;50.856;4.348;2023-04-28T14:20:07;18.30;99.90
23069;DHT22;11702;50.856;4.348;2023-04-28T14:22:32;18.40;99.90
23069;DHT22;11702;50.856;4.348;2023-04-28T14:24:58;18.50;99.90
23069;DHT22;11702;50.856;4.348;2023-04-28T14:27:24;18.40;99.90
23069;DHT22;11702;50.856;4.348;2023-04-28T14:29:49;18.10;99.90
23069;DHT22;11702;50.856;4.348;2023-04-28T14:32:15;18.00;99.90
23069;DHT22;11702;50.856;4.348;2023-04-28T14:34:43;18.10;99.90
23069;DHT22;11702;50.856;4.348;2023-04-28T14:37:09;18.20;99.90
23069;DHT22;11702;50.856;4.348;2023-04-28T14:39:36;17.90;99.90
23069;DHT22;11702;50.856;4.348;2023-04-28T14:42:04;17.80;99.90
23069;DHT22;11702;50.856;4.348;2023-04-28T14:44:30;17.80;99.90
23069;DHT22;11702;50.856;4.348;2023-04-28T14:46:56;17.80;99.90
23069;DHT22;11702;50.856;4.348;2023-04-28T14:49:21;17.80;99.90
23069;DHT22;11702;50.856;4.348;2023-04-28T14:51:48;18.10;99.90
23069;DHT22;11702;50.856;4.348;2023-04-28T14:54:14;18.30;99.90
23069;DHT22;11702;50.856;4.348;2023-04-28T14:56:39;18.60;99.90
23069;DHT22;11702;50.856;4.348;2023-04-28T14:59:05;19.00;99.90
23069;DHT22;11702;50.856;4.348;2023-04-28T15:01:31;19.30;99.90
23069;DHT22;11702;50.856;4.348;2023-04-28T15:03:57;19.60;99.90
23069;DHT22;11702;50.856;4.348;2023-04-28T15:06:22;19.50;99.90
23069;DHT22;11702;50.856;4.348;2023-04-28T15:08:48;19.50;99.90
23069;DHT22;11702;50.856;4.348;2023-04-28T15:11:14;19.60;99.90
23069;DHT22;11702;50.856;4.348;2023-04-28T15:13:39;19.60;99.90
23069;DHT22;11702;50.856;4.348;2023-04-28T15:16:05;19.50;99.90
23069;DHT22;11702;50.856;4.348;2023-04-28T15:18:31;19.30;99.90
23069;DHT22;11702;50.856;4.348;2023-04-28T15:20:58;19.00;99.90
23069;DHT22;11702;50.856;4.348;2023-04-28T15:23:23;19.00;99.90
23069;DHT22;11702;50.856;4.348;2023-04-28T15:25:49;18.90;99.90
23069;DHT22;11702;50.856;4.348;2023-04-28T15:28:18;18.90;99.90
23069;DHT22;11702;50.856;4.348;2023-04-28T15:30:43;18.80;99.90
23069;DHT22;11702;50.856;4.348;2023-04-28T15:33:09;18.80;99.90
23069;DHT22;11702;50.856;4.348;2023-04-28T15:35:44;18.60;99.90
23069;DHT22;11702;50.856;4.348;2023-04-28T15:38:09;18.60;99.90
23069;DHT22;11702;50.856;4.348;2023-04-28T15:40:38;18.50;99.90
23069;DHT22;11702;50.856;4.348;2023-04-28T15:43:05;18.70;99.90
23069;DHT22;11702;50.856;4.348;2023-04-28T15:45:31;18.60;99.90
23069;DHT22;11702;50.856;4.348;2023-04-28T15:47:58;18.50;99.90
23069;DHT22;11702;50.856;4.348;2023-04-28T15:50:24;18.40;99.90
23069;DHT22;11702;50.856;4.348;2023-04-28T15:52:50;18.20;99.90
23069;DHT22;11702;50.856;4.348;2023-04-28T15:55:18;18.00;99.90
23069;DHT22;11702;50.856;4.348;2023-04-28T15:57:45;17.70;99.90
23069;DHT22;11702;50.856;4.348;2023-04-28T16:00:12;17.30;99.90
23069;DHT22;11702;50.856;4.348;2023-04-28T16:02:39;17.30;99.90
23069;DHT22;11702;50.856;4.348;2023-04-28T16:05:06;17.10;99.90
23069;DHT22;11702;50.856;4.348;2023-04-28T16:07:33;16.90;99.90
23069;DHT22;11702;50.856;4.348;2023-04-28T16:10:13;16.90;99.90
23069;DHT22;11702;50.856;4.348;2023-04-28T16:12:39;16.80;99.90
23069;DHT22;11702;50.856;4.348;2023-04-28T16:15:06;16.80;99.90
23069;DHT22;11702;50.856;4.348;2023-04-28T16:17:33;16.70;99.90
23069;DHT22;11702;50.856;4.348;2023-04-28T16:20:00;16.70;99.90
23069;DHT22;11702;50.856;4.348;2023-04-28T16:22:26;16.70;99.90
23069;DHT22;11702;50.856;4.348;2023-04-28T16:24:55;16.60;99.90
23069;DHT22;11702;50.856;4.348;2023-04-28T16:27:21;16.40;99.90
23069;DHT22;11702;50.856;4.348;2023-04-28T16:29:47;16.20;99.90
23069;DHT22;11702;50.856;4.348;2023-04-28T16:32:13;16.30;99.90
23069;DHT22;11702;50.856;4.348;2023-04-28T16:34:39;16.30;99.90
23069;DHT22;11702;50.856;4.348;2023-04-28T16:37:06;16.10;99.90
23069;DHT22;11702;50.856;4.348;2023-04-28T16:39:32;16.10;99.90
23069;DHT22;11702;50.856;4.348;2023-04-28T16:41:58;16.00;99.90
23069;DHT22;11702;50.856;4.348;2023-04-28T16:44:30;16.00;99.90
23069;DHT22;11702;50.856;4.348;2023-04-28T16:46:56;16.10;99.90
23069;DHT22;11702;50.856;4.348;2023-04-28T16:49:22;16.20;99.90
23069;DHT22;11702;50.856;4.348;2023-04-28T16:52:01;16.30;99.90
23069;DHT22;11702;50.856;4.348;2023-04-28T16:54:29;16.50;99.90
23069;DHT22;11702;50.856;4.348;2023-04-28T16:56:57;16.60;99.90
23069;DHT22;11702;50.856;4.348;2023-04-28T16:59:24;16.70;99.90
23069;DHT22;11702;50.856;4.348;2023-04-28T17:01:56;16.50;99.90
23069;DHT22;11702;50.856;4.348;2023-04-28T17:04:23;16.40;99.90
23069;DHT22;11702;50.856;4.348;2023-04-28T17:06:51;16.20;99.90
23069;DHT22;11702;50.856;4.348;2023-04-28T17:09:18;16.30;99.90
23069;DHT22;11702;50.856;4.348;2023-04-28T17:11:45;16.20;99.90
23069;DHT22;11702;50.856;4.348;2023-04-28T17:14:14;16.20;99.90
23069;DHT22;11702;50.856;4.348;2023-04-28T17:16:41;16.10;99.90
23069;DHT22;11702;50.856;4.348;2023-04-28T17:19:08;16.10;99.90
23069;DHT22;11702;50.856;4.348;2023-04-28T17:21:34;16.10;99.90
23069;DHT22;11702;50.856;4.348;2023-04-28T17:24:00;15.90;99.90
23069;DHT22;11702;50.856;4.348;2023-04-28T17:26:27;15.70;99.90
23069;DHT22;11702;50.856;4.348;2023-04-28T17:28:54;15.70;99.90
23069;DHT22;11702;50.856;4.348;2023-04-28T17:31:21;15.70;99.90
23069;DHT22;11702;50.856;4.348;2023-04-28T17:33:48;15.70;99.90
23069;DHT22;11702;50.856;4.348;2023-04-28T17:36:16;15.60;99.90
23069;DHT22;11702;50.856;4.348;2023-04-28T17:38:41;15.50;99.90
23069;DHT22;11702;50.856;4.348;2023-04-28T17:41:07;15.40;99.90
23069;DHT22;11702;50.856;4.348;2023-04-28T17:43:32;15.30;99.90
23069;DHT22;11702;50.856;4.348;2023-04-28T17:45:59;15.20;99.90
23069;DHT22;11702;50.856;4.348;2023-04-28T17:48:25;15.20;99.90
23069;DHT22;11702;50.856;4.348;2023-04-28T17:50:51;15.10;99.90
23069;DHT22;11702;50.856;4.348;2023-04-28T17:53:17;15.10;99.90
23069;DHT22;11702;50.856;4.348;2023-04-28T17:55:43;15.10;99.90
23069;DHT22;11702;50.856;4.348;2023-04-28T17:58:09;15.00;99.90
23069;DHT22;11702;50.856;4.348;2023-04-28T18:00:35;14.90;99.90
23069;DHT22;11702;50.856;4.348;2023-04-28T18:03:01;15.00;99.90
23069;DHT22;11702;50.856;4.348;2023-04-28T18:05:27;14.90;99.90
23069;DHT22;11702;50.856;4.348;2023-04-28T18:07:54;14.80;99.90
23069;DHT22;11702;50.856;4.348;2023-04-28T18:10:20;14.70;99.90
23069;DHT22;11702;50.856;4.348;2023-04-28T18:12:46;14.60;99.90
23069;DHT22;11702;50.856;4.348;2023-04-28T18:15:12;14.60;99.90
23069;DHT22;11702;50.856;4.348;2023-04-28T18:17:37;14.60;99.90
23069;DHT22;11702;50.856;4.348;2023-04-28T18:20:04;14.60;99.90
23069;DHT22;11702;50.856;4.348;2023-04-28T18:22:33;14.60;99.90
23069;DHT22;11702;50.856;4.348;2023-04-28T18:24:59;14.60;99.90
23069;DHT22;11702;50.856;4.348;2023-04-28T18:27:25;14.70;99.90
23069;DHT22;11702;50.856;4.348;2023-04-28T18:29:51;14.70;99.90
23069;DHT22;11702;50.856;4.348;2023-04-28T18:32:17;14.70;99.90
23069;DHT22;11702;50.856;4.348;2023-04-28T18:34:43;14.70;99.90
23069;DHT22;11702;50.856;4.348;2023-04-28T18:37:09;14.70;99.90
23069;DHT22;11702;50.856;4.348;2023-04-28T18:39:35;14.70;99.90
23069;DHT22;11702;50.856;4.348;2023-04-28T18:42:02;14.70;99.90
23069;DHT22;11702;50.856;4.348;2023-04-28T18:44:32;14.80;99.90
23069;DHT22;11702;50.856;4.348;2023-04-28T18:46:57;14.90;99.90
23069;DHT22;11702;50.856;4.348;2023-04-28T18:49:24;14.80;99.90
23069;DHT22;11702;50.856;4.348;2023-04-28T18:51:50;14.80;99.90
23069;DHT22;11702;50.856;4.348;2023-04-28T18:54:16;14.80;99.90
23069;DHT22;11702;50.856;4.348;2023-04-28T18:56:44;14.90;99.90
23069;DHT22;11702;50.856;4.348;2023-04-28T18:59:10;14.90;99.90
23069;DHT22;11702;50.856;4.348;2023-04-28T19:01:37;14.80;99.90
23069;DHT22;11702;50.856;4.348;2023-04-28T19:04:02;15.00;99.90
23069;DHT22;11702;50.856;4.348;2023-04-28T19:06:29;14.90;99.90
23069;DHT22;11702;50.856;4.348;2023-04-28T19:08:55;14.90;99.90
23069;DHT22;11702;50.856;4.348;2023-04-28T19:11:24;14.90;99.90
23069;DHT22;11702;50.856;4.348;2023-04-28T19:13:51;14.80;99.90
23069;DHT22;11702;50.856;4.348;2023-04-28T19:16:19;14.70;99.90
23069;DHT22;11702;50.856;4.348;2023-04-28T19:18:44;14.60;99.90
23069;DHT22;11702;50.856;4.348;2023-04-28T19:21:11;14.50;99.90
23069;DHT22;11702;50.856;4.348;2023-04-28T19:23:38;14.40;99.90
23069;DHT22;11702;50.856;4.348;2023-04-28T19:26:06;14.50;99.90
23069;DHT22;11702;50.856;4.348;2023-04-28T19:28:33;14.40;99.90
23069;DHT22;11702;50.856;4.348;2023-04-28T19:31:00;14.40;99.90
23069;DHT22;11702;50.856;4.348;2023-04-28T19:33:26;14.40;99.90
23069;DHT22;11702;50.856;4.348;2023-04-28T19:35:52;14.30;99.90
23069;DHT22;11702;50.856;4.348;2023-04-28T19:38:21;14.10;99.90
23069;DHT22;11702;50.856;4.348;2023-04-28T19:40:48;14.20;99.90
23069;DHT22;11702;50.856;4.348;2023-04-28T19:43:14;14.10;99.90
23069;DHT22;11702;50.856;4.348;2023-04-28T19:45:44;14.00;99.90
23069;DHT22;11702;50.856;4.348;2023-04-28T19:48:10;13.70;99.90
23069;DHT22;11702;50.856;4.348;2023-04-28T19:50:36;13.60;99.90
23069;DHT22;11702;50.856;4.348;2023-04-28T19:53:02;13.40;99.90
23069;DHT22;11702;50.856;4.348;2023-04-28T19:55:28;13.30;99.90
23069;DHT22;11702;50.856;4.348;2023-04-28T19:57:54;13.30;99.90
23069;DHT22;11702;50.856;4.348;2023-04-28T20:00:23;13.20;99.90
23069;DHT22;11702;50.856;4.348;2023-04-28T20:02:50;13.30;99.90
23069;DHT22;11702;50.856;4.348;2023-04-28T20:05:16;13.20;99.90
23069;DHT22;11702;50.856;4.348;2023-04-28T20:07:48;13.10;99.90
23069;DHT22;11702;50.856;4.348;2023-04-28T20:10:14;13.10;99.90
23069;DHT22;11702;50.856;4.348;2023-04-28T20:12:41;13.00;99.90
23069;DHT22;11702;50.856;4.348;2023-04-28T20:15:07;13.00;99.90
23069;DHT22;11702;50.856;4.348;2023-04-28T20:17:34;13.00;99.90
23069;DHT22;11702;50.856;4.348;2023-04-28T20:20:02;13.00;99.90
23069;DHT22;11702;50.856;4.348;2023-04-28T20:22:30;13.00;99.90
23069;DHT22;11702;50.856;4.348;2023-04-28T20:24:56;12.90;99.90
23069;DHT22;11702;50.856;4.348;2023-04-28T20:27:25;12.90;99.90
23069;DHT22;11702;50.856;4.348;2023-04-28T20:29:51;12.90;99.90
23069;DHT22;11702;50.856;4.348;2023-04-28T20:32:18;12.80;99.90
23069;DHT22;11702;50.856;4.348;2023-04-28T20:34:44;12.90;99.90
23069;DHT22;11702;50.856;4.348;2023-04-28T20:37:10;13.00;99.90
23069;DHT22;11702;50.856;4.348;2023-04-28T20:39:37;12.90;99.90
23069;DHT22;11702;50.856;4.348;2023-04-28T20:42:03;12.80;99.90
23069;DHT22;11702;50.856;4.348;2023-04-28T20:44:29;12.80;99.90
23069;DHT22;11702;50.856;4.348;2023-04-28T20:46:54;12.90;99.90
23069;DHT22;11702;50.856;4.348;2023-04-28T20:49:20;12.80;99.90
23069;DHT22;11702;50.856;4.348;2023-04-28T20:51:46;12.70;99.90
23069;DHT22;11702;50.856;4.348;2023-04-28T20:54:12;12.60;99.90
23069;DHT22;11702;50.856;4.348;2023-04-28T20:56:39;12.40;99.90
23069;DHT22;11702;50.856;4.348;2023-04-28T20:59:07;12.40;99.90
23069;DHT22;11702;50.856;4.348;2023-04-28T21:01:33;12.50;99.90
23069;DHT22;11702;50.856;4.348;2023-04-28T21:03:59;12.50;99.90
23069;DHT22;11702;50.856;4.348;2023-04-28T21:06:25;12.50;99.90
23069;DHT22;11702;50.856;4.348;2023-04-28T21:08:50;12.60;99.90
23069;DHT22;11702;50.856;4.348;2023-04-28T21:11:18;12.50;99.90
23069;DHT22;11702;50.856;4.348;2023-04-28T21:13:45;12.60;99.90
23069;DHT22;11702;50.856;4.348;2023-04-28T21:16:12;12.60;99.90
23069;DHT22;11702;50.856;4.348;2023-04-28T21:18:39;12.60;99.90
23069;DHT22;11702;50.856;4.348;2023-04-28T21:21:05;12.60;99.90
23069;DHT22;11702;50.856;4.348;2023-04-28T21:23:30;12.50;99.90
23069;DHT22;11702;50.856;4.348;2023-04-28T21:25:56;12.50;99.90
23069;DHT22;11702;50.856;4.348;2023-04-28T21:28:22;12.60;99.90
23069;DHT22;11702;50.856;4.348;2023-04-28T21:30:50;12.50;99.90
23069;DHT22;11702;50.856;4.348;2023-04-28T21:33:17;12.50;99.90
23069;DHT22;11702;50.856;4.348;2023-04-28T21:35:42;12.50;99.90
23069;DHT22;11702;50.856;4.348;2023-04-28T21:38:08;12.50;99.90
23069;DHT22;11702;50.856;4.348;2023-04-28T21:40:35;12.50;99.90
23069;DHT22;11702;50.856;4.348;2023-04-28T21:43:01;12.60;99.90
23069;DHT22;11702;50.856;4.348;2023-04-28T21:45:27;12.80;99.90
23069;DHT22;11702;50.856;4.348;2023-04-28T21:47:52;12.70;99.90
23069;DHT22;11702;50.856;4.348;2023-04-28T21:50:18;12.70;99.90
23069;DHT22;11702;50.856;4.348;2023-04-28T21:52:43;12.60;99.90
23069;DHT22;11702;50.856;4.348;2023-04-28T21:55:09;12.60;99.90
23069;DHT22;11702;50.856;4.348;2023-04-28T21:57:35;12.60;99.90
23069;DHT22;11702;50.856;4.348;2023-04-28T22:00:01;12.50;99.90
23069;DHT22;11702;50.856;4.348;2023-04-28T22:02:26;12.60;99.90
23069;DHT22;11702;50.856;4.348;2023-04-28T22:04:54;12.70;99.90
23069;DHT22;11702;50.856;4.348;2023-04-28T22:07:20;12.70;99.90
23069;DHT22;11702;50.856;4.348;2023-04-28T22:09:45;12.60;99.90
23069;DHT22;11702;50.856;4.348;2023-04-28T22:12:12;12.50;99.90
23069;DHT22;11702;50.856;4.348;2023-04-28T22:14:38;12.40;99.90
23069;DHT22;11702;50.856;4.348;2023-04-28T22:17:04;12.20;99.90
23069;DHT22;11702;50.856;4.348;2023-04-28T22:19:30;12.20;99.90
23069;DHT22;11702;50.856;4.348;2023-04-28T22:21:56;12.20;99.90
23069;DHT22;11702;50.856;4.348;2023-04-28T22:24:22;12.20;99.90
23069;DHT22;11702;50.856;4.348;2023-04-28T22:26:47;12.20;99.90
23069;DHT22;11702;50.856;4.348;2023-04-28T22:29:14;12.20;99.90
23069;DHT22;11702;50.856;4.348;2023-04-28T22:31:39;12.20;99.90
23069;DHT22;11702;50.856;4.348;2023-04-28T22:34:05;12.20;99.90
23069;DHT22;11702;50.856;4.348;2023-04-28T22:36:34;12.20;99.90
23069;DHT22;11702;50.856;4.348;2023-04-28T22:39:00;12.20;99.90
23069;DHT22;11702;50.856;4.348;2023-04-28T22:41:26;12.30;99.90
23069;DHT22;11702;50.856;4.348;2023-04-28T22:43:51;12.20;99.90
23069;DHT22;11702;50.856;4.348;2023-04-28T22:46:17;12.10;99.90
23069;DHT22;11702;50.856;4.348;2023-04-28T22:48:43;12.10;99.90
23069;DHT22;11702;50.856;4.348;2023-04-28T22:51:09;12.20;99.90
23069;DHT22;11702;50.856;4.348;2023-04-28T22:53:35;12.20;99.90
23069;DHT22;11702;50.856;4.348;2023-04-28T22:56:00;12.10;99.90
23069;DHT22;11702;50.856;4.348;2023-04-28T22:58:28;12.10;99.90
23069;DHT22;11702;50.856;4.348;2023-04-28T23:00:54;12.00;99.90
23069;DHT22;11702;50.856;4.348;2023-04-28T23:03:19;12.00;99.90
23069;DHT22;11702;50.856;4.348;2023-04-28T23:05:46;12.00;99.90
23069;DHT22;11702;50.856;4.348;2023-04-28T23:08:11;12.00;99.90
23069;DHT22;11702;50.856;4.348;2023-04-28T23:10:37;12.00;99.90
23069;DHT22;11702;50.856;4.348;2023-04-28T23:13:03;11.90;99.90
